Time;durP1;ratioP1;P1;durP2;ratioP2;P2;SDS_P1;SDS_P2;PMS_P1;PMS_P2;Temp;Humidity;BMP_temperature;BMP_pressure;BME280_temperature;BME280_humidity;BME280_pressure;Samples;Min_cycle;Max_cycle;Signal;HPM_P1;HPM_P2
2022/07/14 00:01:17;;;;;;;4.15;0.90;;;;;;;21.46;48.00;96615.97;5090335;28;20051;-80
2022/07/14 00:03:44;;;;;;;3.50;1.10;;;;;;;21.50;48.92;96615.97;5090944;28;20075;-78
2022/07/14 00:06:12;;;;;;;1.55;1.23;;;;;;;21.51;48.80;96618.38;5090402;28;20047;-79
2022/07/14 00:08:39;;;;;;;2.40;1.30;;;;;;;21.50;49.08;96616.78;5090898;28;20055;-80
2022/07/14 00:11:06;;;;;;;3.95;1.23;;;;;;;21.50;48.90;96608.47;5090336;28;20044;-78
2022/07/14 00:13:33;;;;;;;2.63;1.10;;;;;;;21.47;49.02;96606.47;5090893;28;20044;-80
2022/07/14 00:15:59;;;;;;;2.58;1.23;;;;;;;21.49;49.74;96603.31;5090612;28;20043;-80
2022/07/14 00:18:26;;;;;;;2.40;1.30;;;;;;;21.47;48.49;96609.25;5090289;28;20499;-80
2022/07/14 00:20:53;;;;;;;2.00;1.20;;;;;;;21.49;50.69;96608.84;5090467;28;20044;-80
2022/07/14 00:23:24;;;;;;;1.55;0.90;;;;;;;21.42;50.58;96606.81;5092228;28;20044;-80
2022/07/14 00:25:50;;;;;;;1.30;1.00;;;;;;;21.36;50.07;96609.16;5048026;28;20443;-80
2022/07/14 00:28:17;;;;;;;1.80;0.90;;;;;;;21.31;50.73;96600.41;5010376;28;20045;-80
2022/07/14 00:30:45;;;;;;;1.67;1.00;;;;;;;21.28;51.52;96598.34;5007688;28;20072;-80
2022/07/14 00:33:11;;;;;;;2.85;1.13;;;;;;;21.23;51.40;96595.94;5007355;28;20061;-80
2022/07/14 00:35:38;;;;;;;2.75;1.20;;;;;;;21.19;52.09;96597.84;5007602;28;20421;-80
2022/07/14 00:38:05;;;;;;;2.50;0.98;;;;;;;21.03;51.14;96587.81;5007118;28;20591;-80
2022/07/14 00:40:33;;;;;;;1.40;0.95;;;;;;;21.05;51.97;96579.16;5007510;28;20091;-80
2022/07/14 00:43:00;;;;;;;3.03;1.35;;;;;;;21.04;52.63;96583.91;5007422;28;20046;-80
2022/07/14 00:45:27;;;;;;;3.40;1.27;;;;;;;21.00;52.19;96580.28;4998632;28;20520;-80
2022/07/14 00:47:53;;;;;;;1.75;1.20;;;;;;;20.98;52.64;96579.84;5007733;28;20078;-77
2022/07/14 00:50:20;;;;;;;1.50;1.25;;;;;;;20.97;54.43;96574.72;5007044;28;20053;-78
2022/07/14 00:52:49;;;;;;;2.13;1.33;;;;;;;20.94;54.14;96576.28;5007504;28;20050;-78
2022/07/14 00:55:17;;;;;;;1.55;1.10;;;;;;;20.89;55.08;96573.06;5004798;28;20042;-79
2022/07/14 00:57:46;;;;;;;1.70;1.20;;;;;;;20.82;54.93;96571.78;5007660;28;20054;-79
2022/07/14 01:00:14;;;;;;;1.77;1.25;;;;;;;20.80;54.01;96573.34;5006839;28;20049;-78
2022/07/14 01:02:43;;;;;;;1.80;1.25;;;;;;;20.77;54.53;96577.66;5006623;28;20073;-78
2022/07/14 01:05:10;;;;;;;1.85;1.10;;;;;;;20.67;52.73;96578.34;5007179;28;20057;-78
2022/07/14 01:07:36;;;;;;;2.80;1.20;;;;;;;20.71;54.03;96573.66;5007497;28;20057;-78
2022/07/14 01:10:06;;;;;;;1.92;1.10;;;;;;;20.71;54.10;96576.41;5006784;28;20539;-78
2022/07/14 01:12:33;;;;;;;1.95;1.08;;;;;;;20.70;56.21;96577.59;5007220;28;20042;-78
2022/07/14 01:15:01;;;;;;;3.15;1.23;;;;;;;20.69;55.79;96578.78;5007031;28;20058;-80
2022/07/14 01:17:27;;;;;;;1.45;1.10;;;;;;;20.65;54.79;96589.00;5007081;28;20404;-80
2022/07/14 01:19:55;;;;;;;2.40;1.20;;;;;;;20.64;55.02;96581.88;5006954;28;20061;-80
2022/07/14 01:22:23;;;;;;;1.70;1.15;;;;;;;20.58;55.30;96573.13;5006729;28;20050;-80
2022/07/14 01:24:50;;;;;;;2.17;1.10;;;;;;;20.58;55.24;96577.88;5006582;28;20083;-78
2022/07/14 01:27:16;;;;;;;1.20;1.10;;;;;;;20.58;55.08;96578.66;4988555;28;20050;-81
2022/07/14 01:29:43;;;;;;;1.27;1.15;;;;;;;20.53;55.38;96576.22;4987676;28;20073;-79
2022/07/14 01:32:09;;;;;;;2.22;1.25;;;;;;;20.53;55.09;96579.00;4987000;28;20501;-80
2022/07/14 01:34:36;;;;;;;1.30;1.10;;;;;;;20.53;55.37;96579.00;4987267;28;20134;-81
2022/07/14 01:37:03;;;;;;;2.65;1.42;;;;;;;20.52;55.64;96580.16;4987155;28;20111;-82
2022/07/14 01:39:31;;;;;;;2.90;1.23;;;;;;;20.51;55.98;96567.50;4987339;28;20042;-80
2022/07/14 01:41:58;;;;;;;2.47;1.30;;;;;;;20.52;55.70;96568.31;4987226;28;20146;-79
2022/07/14 01:44:24;;;;;;;2.20;1.30;;;;;;;20.42;52.44;96569.75;4986887;28;20038;-79
2022/07/14 01:46:51;;;;;;;2.97;1.30;;;;;;;20.45;53.56;96563.44;4987189;28;20051;-80
2022/07/14 01:49:18;;;;;;;3.35;1.40;;;;;;;20.38;52.58;96563.38;4986888;28;20050;-80
2022/07/14 01:51:44;;;;;;;1.73;1.13;;;;;;;20.37;52.90;96553.47;4987275;28;20447;-80
2022/07/14 01:54:11;;;;;;;2.17;1.20;;;;;;;20.44;52.93;96566.59;4986732;28;20062;-80
2022/07/14 01:56:40;;;;;;;3.38;1.30;;;;;;;20.46;52.15;96565.06;5072492;28;20044;-80
2022/07/14 01:59:09;;;;;;;1.60;1.10;;;;;;;20.52;52.80;96558.03;5088807;28;20051;-79
2022/07/14 02:01:44;;;;;;;3.22;1.50;;;;;;;20.55;52.97;96550.94;5089548;28;20048;-79
2022/07/14 02:04:11;;;;;;;3.22;1.40;;;;;;;20.55;52.67;96546.19;5088897;28;20048;-80
2022/07/14 02:06:41;;;;;;;1.75;1.20;;;;;;;20.58;51.87;96544.66;5089696;28;20046;-82
2022/07/14 02:09:08;;;;;;;1.50;1.15;;;;;;;20.64;52.70;96547.88;5089083;28;20044;-80
2022/07/14 02:14:20;;;;;;;2.65;1.15;;;;;;;20.68;52.20;96545.97;5092134;28;20062;-80
2022/07/14 02:16:47;;;;;;;2.20;1.30;;;;;;;20.77;52.06;96540.88;5092941;28;20089;-80
2022/07/14 02:19:14;;;;;;;4.05;1.25;;;;;;;20.59;51.13;96558.09;5092704;28;20138;-80
2022/07/14 02:21:41;;;;;;;4.78;1.38;;;;;;;20.53;51.70;96559.63;5092834;28;20414;-79
2022/07/14 02:24:08;;;;;;;2.75;1.30;;;;;;;20.52;52.23;96558.03;5092297;28;20064;-79
2022/07/14 02:26:35;;;;;;;1.33;1.00;;;;;;;20.50;53.04;96570.63;5001961;28;20476;-80
2022/07/14 02:29:01;;;;;;;1.48;1.20;;;;;;;20.52;54.45;96563.56;4989714;28;20062;-81
2022/07/14 02:31:29;;;;;;;7.55;1.20;;;;;;;20.53;55.02;96570.69;4990149;28;20095;-80
2022/07/14 02:33:56;;;;;;;2.42;1.42;;;;;;;20.50;54.10;96570.63;4990019;28;20074;-79
2022/07/14 02:36:23;;;;;;;2.55;1.38;;;;;;;20.38;52.98;96568.09;4989551;28;20055;-80
2022/07/14 02:38:50;;;;;;;1.75;1.25;;;;;;;20.44;53.76;96567.38;4989746;28;20519;-79
2022/07/14 02:41:17;;;;;;;2.10;1.33;;;;;;;20.42;54.35;96564.22;4989455;28;20054;-79
2022/07/14 02:43:43;;;;;;;1.75;1.20;;;;;;;20.40;55.04;96571.28;4990001;28;20050;-79
2022/07/14 02:46:10;;;;;;;2.08;1.40;;;;;;;20.37;55.44;96581.13;4989285;28;20054;-80
2022/07/14 02:48:38;;;;;;;3.60;1.52;;;;;;;20.20;53.92;96576.16;4989883;28;20099;-80
2022/07/14 02:51:07;;;;;;;1.27;1.13;;;;;;;20.23;54.38;96567.13;4989219;28;20058;-80
2022/07/14 02:53:35;;;;;;;1.98;1.20;;;;;;;20.25;55.57;96576.63;4989683;28;20718;-80
2022/07/14 02:56:02;;;;;;;1.92;1.15;;;;;;;20.21;55.62;96578.56;5000670;28;20049;-80
2022/07/14 02:58:28;;;;;;;1.58;1.02;;;;;;;20.12;55.89;96588.31;5009381;28;20046;-80
2022/07/14 03:00:55;;;;;;;2.75;1.17;;;;;;;20.08;56.83;96577.97;5009312;28;20045;-80
2022/07/14 03:03:22;;;;;;;1.65;1.20;;;;;;;20.06;57.03;96576.78;5009020;28;20058;-81
2022/07/14 03:05:51;;;;;;;1.80;1.33;;;;;;;20.00;57.59;96572.75;5009285;28;20500;-83
2022/07/14 03:08:18;;;;;;;1.92;1.40;;;;;;;20.01;58.01;96574.34;5008746;28;20042;-80
2022/07/14 03:10:45;;;;;;;3.10;1.45;;;;;;;20.02;58.14;96568.44;5008950;28;20140;-80
2022/07/14 03:13:11;;;;;;;2.15;1.20;;;;;;;20.00;58.38;96570.78;5008923;28;20053;-80
2022/07/14 03:15:38;;;;;;;2.33;1.20;;;;;;;19.97;58.21;96568.75;5009007;28;20084;-79
2022/07/14 03:18:05;;;;;;;3.45;1.20;;;;;;;19.93;59.11;96570.66;5008624;28;20053;-79
2022/07/14 03:20:31;;;;;;;1.30;1.20;;;;;;;19.90;58.99;96565.91;5008992;28;20042;-80
2022/07/14 03:22:59;;;;;;;1.90;1.30;;;;;;;19.87;59.19;96561.09;5008727;28;20050;-79
2022/07/14 03:25:26;;;;;;;2.53;1.40;;;;;;;19.86;58.94;96562.28;4999319;28;20049;-80
2022/07/14 03:27:53;;;;;;;1.92;1.10;;;;;;;19.88;59.12;96565.47;4989225;28;20057;-81
2022/07/14 03:30:20;;;;;;;1.52;1.20;;;;;;;19.89;59.00;96557.97;4989104;28;20050;-79
2022/07/14 03:32:46;;;;;;;2.35;1.45;;;;;;;19.84;58.79;96567.41;4989239;28;20050;-79
2022/07/14 03:35:13;;;;;;;2.30;1.52;;;;;;;19.81;59.29;96571.69;4988761;28;20054;-79
2022/07/14 03:37:39;;;;;;;3.17;1.88;;;;;;;19.80;59.21;96572.06;4989122;28;20050;-79
2022/07/14 03:40:08;;;;;;;2.25;1.58;;;;;;;19.80;59.07;96570.09;4988408;28;20525;-80
2022/07/14 03:42:35;;;;;;;2.40;1.40;;;;;;;19.77;59.53;96572.81;4989066;28;20133;-80
2022/07/14 03:45:02;;;;;;;1.75;1.30;;;;;;;19.63;57.41;96580.88;4988635;28;20042;-78
2022/07/14 03:47:28;;;;;;;2.75;1.55;;;;;;;19.72;59.26;96581.41;4988777;28;20494;-78
2022/07/14 03:49:55;;;;;;;2.47;1.40;;;;;;;19.65;60.81;96586.84;4989110;28;20211;-79
2022/07/14 03:52:21;;;;;;;2.65;1.40;;;;;;;19.63;61.53;96589.16;4988401;28;20053;-80
2022/07/14 03:54:48;;;;;;;3.40;1.33;;;;;;;19.60;61.59;96590.72;4996843;28;20047;-80
2022/07/14 03:57:16;;;;;;;3.33;1.45;;;;;;;19.61;61.29;96585.97;5090922;28;20055;-78
2022/07/14 03:59:42;;;;;;;1.83;1.40;;;;;;;19.60;61.12;96578.88;5091429;28;20051;-80
2022/07/14 04:02:09;;;;;;;2.60;1.40;;;;;;;19.60;61.26;96576.91;5090767;28;20043;-79
2022/07/14 04:04:36;;;;;;;2.33;1.40;;;;;;;19.60;61.95;96573.34;5091152;28;20051;-79
2022/07/14 04:07:02;;;;;;;1.95;1.35;;;;;;;19.58;61.74;96575.66;5090694;28;20047;-81
2022/07/14 04:09:29;;;;;;;3.38;1.48;;;;;;;19.54;61.78;96562.56;5090849;28;20052;-79
2022/07/14 04:11:57;;;;;;;3.47;1.50;;;;;;;19.54;61.67;96570.06;5091056;28;20135;-79
2022/07/14 04:14:25;;;;;;;2.47;1.60;;;;;;;19.48;61.57;96566.81;5090476;28;20044;-79
2022/07/14 04:16:53;;;;;;;3.05;1.58;;;;;;;19.43;60.21;96567.13;5090772;28;20491;-78
2022/07/14 04:19:19;;;;;;;3.35;1.65;;;;;;;19.45;59.70;96556.50;5090394;28;20471;-79
2022/07/14 04:21:46;;;;;;;4.88;1.40;;;;;;;19.48;60.16;96561.31;5090813;28;20048;-80
2022/07/14 04:24:12;;;;;;;2.05;1.13;;;;;;;19.54;60.61;96564.53;5090010;28;20063;-79
2022/07/14 04:26:40;;;;;;;3.42;1.42;;;;;;;19.56;61.29;96571.28;5014063;28;20069;-79
2022/07/14 04:29:07;;;;;;;3.97;1.65;;;;;;;19.59;60.92;96571.72;5007593;28;20046;-79
2022/07/14 04:31:35;;;;;;;3.95;1.42;;;;;;;19.59;61.32;96582.78;5008229;28;20049;-79
2022/07/14 04:34:02;;;;;;;1.73;1.30;;;;;;;19.58;62.03;96584.75;5007557;28;20042;-79
2022/07/14 04:36:28;;;;;;;3.95;1.63;;;;;;;19.58;62.43;96586.72;5007872;28;20053;-78
2022/07/14 04:38:56;;;;;;;1.70;1.30;;;;;;;19.53;62.22;96585.84;5008174;28;20057;-78
2022/07/14 04:41:23;;;;;;;3.97;1.48;;;;;;;19.54;62.33;96594.94;5007415;28;20133;-79
2022/07/14 04:43:50;;;;;;;2.58;1.58;;;;;;;19.49;62.68;96587.75;5007998;28;20054;-79
2022/07/14 04:46:16;;;;;;;3.40;1.40;;;;;;;19.45;63.62;96589.66;5007353;28;20038;-79
2022/07/14 04:54:14;;;;;;;1.90;1.45;;;;;;;19.42;63.78;96589.59;5007373;28;20053;-79
2022/07/14 04:56:41;;;;;;;3.45;1.65;;;;;;;19.46;63.41;96584.91;4989175;28;20516;-80
2022/07/14 04:59:08;;;;;;;3.28;1.48;;;;;;;19.46;63.72;96591.25;4987668;28;20050;-80
2022/07/14 05:01:35;;;;;;;3.53;1.52;;;;;;;19.50;62.63;96585.78;4988307;28;20119;-79
2022/07/14 05:04:03;;;;;;;1.70;1.30;;;;;;;19.54;62.14;96586.66;4987627;28;20047;-79
2022/07/14 05:06:30;;;;;;;2.85;1.35;;;;;;;19.60;60.01;96584.38;4988124;28;20064;-80
2022/07/14 05:08:56;;;;;;;3.28;1.48;;;;;;;19.72;59.61;96592.47;4987959;28;20053;-79
2022/07/14 05:11:23;;;;;;;2.90;1.77;;;;;;;19.66;58.75;96585.66;4987510;28;20065;-79
2022/07/14 05:13:52;;;;;;;3.22;1.45;;;;;;;19.76;58.32;96587.78;4987747;28;20408;-79
2022/07/14 05:16:19;;;;;;;1.90;1.13;;;;;;;19.90;58.07;96588.00;4987724;28;20046;-79
2022/07/14 05:18:46;;;;;;;1.75;1.30;;;;;;;20.02;58.58;96593.31;4987916;28;20054;-79
2022/07/14 05:21:14;;;;;;;1.90;1.50;;;;;;;20.10;58.29;96587.88;4987384;28;20038;-79
2022/07/14 05:23:41;;;;;;;4.47;1.60;;;;;;;20.22;58.61;96593.19;4987532;28;20057;-79
2022/07/14 05:26:10;;;;;;;3.70;1.40;;;;;;;20.31;57.47;96579.88;4999021;28;20138;-79
2022/07/14 05:28:37;;;;;;;1.85;1.30;;;;;;;20.47;56.69;96577.75;5007221;28;20046;-79
2022/07/14 05:31:03;;;;;;;2.00;1.40;;;;;;;20.54;54.64;96586.09;5006870;28;20042;-80
2022/07/14 05:33:30;;;;;;;3.08;1.10;;;;;;;20.63;53.74;96585.03;5007280;28;20065;-79
2022/07/14 05:35:56;;;;;;;2.80;1.35;;;;;;;20.85;53.85;96586.84;5007130;28;20050;-79
2022/07/14 05:38:24;;;;;;;3.38;1.20;;;;;;;20.97;52.28;96589.34;5006807;28;20053;-79
2022/07/14 05:40:51;;;;;;;3.03;1.13;;;;;;;21.01;52.81;96575.53;5006876;28;20060;-79
2022/07/14 05:43:18;;;;;;;3.80;1.48;;;;;;;21.17;53.06;96583.59;5006953;28;20053;-79
2022/07/14 05:45:45;;;;;;;5.18;1.33;;;;;;;21.24;52.54;96580.91;5007086;28;20050;-78
2022/07/14 05:48:12;;;;;;;3.60;1.40;;;;;;;21.27;53.05;96575.41;5007817;28;20049;-79
2022/07/14 05:50:38;;;;;;;2.33;1.30;;;;;;;21.27;52.74;96577.38;5010355;28;20049;-79
2022/07/14 05:53:05;;;;;;;2.28;1.15;;;;;;;21.33;52.55;96578.63;5010113;28;20057;-79
2022/07/14 05:55:33;;;;;;;7.30;2.25;;;;;;;21.30;51.30;96577.44;5001280;28;20053;-79
2022/07/14 05:57:59;;;;;;;1.45;1.25;;;;;;;21.30;51.55;96590.50;4990562;28;20052;-79
2022/07/14 06:00:26;;;;;;;3.75;1.20;;;;;;;21.40;51.47;96598.09;4990338;28;20053;-79
2022/07/14 06:02:52;;;;;;;2.35;1.35;;;;;;;21.61;51.00;96600.22;4990596;28;20046;-79
2022/07/14 06:05:19;;;;;;;1.75;1.20;;;;;;;21.52;51.34;96594.25;4989987;28;20054;-79
2022/07/14 06:07:45;;;;;;;2.63;1.40;;;;;;;21.56;51.66;96586.72;4990667;28;20042;-79
2022/07/14 06:10:13;;;;;;;3.25;1.35;;;;;;;21.52;51.75;96583.94;4989985;28;20061;-79
2022/07/14 06:12:41;;;;;;;2.05;1.08;;;;;;;21.59;52.43;96586.78;4990341;28;20130;-79
2022/07/14 06:15:09;;;;;;;3.08;1.30;;;;;;;21.48;51.47;96585.91;4989750;28;20486;-79
2022/07/14 06:17:35;;;;;;;6.07;1.40;;;;;;;21.56;52.32;96582.00;4990283;28;20448;-79
2022/07/14 06:20:07;;;;;;;3.33;1.65;;;;;;;21.59;51.95;96580.44;4989792;28;20051;-79
2022/07/14 06:22:34;;;;;;;4.75;1.38;;;;;;;21.68;52.47;96577.34;4990458;28;20058;-79
2022/07/14 06:25:00;;;;;;;2.03;1.23;;;;;;;21.76;51.38;96585.31;5007401;28;20101;-78
2022/07/14 06:27:27;;;;;;;5.93;1.20;;;;;;;21.87;52.06;96575.09;5092417;28;20043;-79
2022/07/14 06:29:55;;;;;;;3.65;1.45;;;;;;;21.97;51.58;96575.53;5092888;28;20105;-79
2022/07/14 06:32:23;;;;;;;3.40;1.35;;;;;;;22.08;51.27;96574.44;5092239;28;20485;-79
2022/07/14 06:34:50;;;;;;;2.80;1.33;;;;;;;22.19;51.66;96568.19;5092618;28;20044;-79
2022/07/14 06:37:16;;;;;;;3.90;1.45;;;;;;;22.27;51.67;96569.78;5092305;28;20055;-79
2022/07/14 06:39:43;;;;;;;2.20;1.10;;;;;;;22.38;52.40;96573.41;5092650;28;20059;-79
2022/07/14 06:42:09;;;;;;;2.40;1.42;;;;;;;22.60;50.63;96566.78;5092168;28;20577;-79
2022/07/14 06:44:36;;;;;;;7.30;1.42;;;;;;;22.77;49.50;96568.00;5092776;28;20052;-78
2022/07/14 06:47:04;;;;;;;4.68;1.30;;;;;;;22.83;47.02;96572.00;5091904;28;20502;-79
2022/07/14 06:49:30;;;;;;;3.85;1.20;;;;;;;22.99;46.48;96560.56;5092512;28;20048;-80
2022/07/14 06:51:57;;;;;;;2.97;1.25;;;;;;;23.17;45.26;96561.34;5092412;28;20461;-81
2022/07/14 06:54:23;;;;;;;5.65;1.30;;;;;;;23.38;45.28;96570.91;5091825;28;20093;-78
2022/07/14 06:56:50;;;;;;;4.05;1.45;;;;;;;23.50;44.07;96572.50;4990982;28;20050;-79
2022/07/14 06:59:16;;;;;;;3.92;1.48;;;;;;;23.63;44.89;96566.16;4988184;28;20103;-79
2022/07/14 07:01:43;;;;;;;1.95;1.10;;;;;;;23.79;44.23;96567.75;4989548;28;20055;-79
2022/07/14 07:04:11;;;;;;;7.53;1.30;;;;;;;23.89;42.86;96564.16;4989176;28;20061;-79
2022/07/14 07:06:44;;;;;;;3.92;1.40;;;;;;;24.07;43.20;96562.16;4989601;28;20046;-79
2022/07/14 07:09:11;;;;;;;3.85;1.10;;;;;;;24.28;43.76;96554.94;4989001;28;20501;-78
2022/07/14 07:11:38;;;;;;;6.32;1.35;;;;;;;24.34;44.54;96553.31;4989646;28;20050;-79
2022/07/14 07:14:05;;;;;;;3.17;1.52;;;;;;;24.37;41.81;96546.97;4989065;28;20047;-79
2022/07/14 07:16:32;;;;;;;4.60;1.30;;;;;;;24.50;41.50;96545.31;4989363;28;20448;-79
2022/07/14 07:18:58;;;;;;;6.05;2.22;;;;;;;24.62;41.87;96544.84;4989403;28;20051;-79
2022/07/14 07:21:26;;;;;;;4.97;1.85;;;;;;;24.71;42.09;96539.66;4988989;28;20054;-80
2022/07/14 07:23:54;;;;;;;3.13;1.20;;;;;;;24.78;42.08;96540.81;4988987;28;20069;-79
2022/07/14 07:26:24;;;;;;;2.95;1.27;;;;;;;24.75;43.20;96536.84;5002552;28;20070;-78
2022/07/14 07:28:52;;;;;;;3.75;1.50;;;;;;;24.88;43.95;96542.75;5008789;28;20056;-79
2022/07/14 07:31:18;;;;;;;3.63;1.20;;;;;;;24.98;42.38;96536.31;5008155;28;20530;-79
2022/07/14 07:33:45;;;;;;;4.97;1.40;;;;;;;25.14;43.76;96539.41;5008639;28;20081;-78
2022/07/14 07:36:12;;;;;;;9.25;2.67;;;;;;;25.03;40.96;96532.31;5008108;28;20046;-79
2022/07/14 07:38:40;;;;;;;8.70;3.38;;;;;;;25.16;42.82;96525.06;5008614;28;20053;-78
2022/07/14 07:41:06;;;;;;;2.72;1.60;;;;;;;25.20;41.87;96521.03;5008069;28;20046;-78
2022/07/14 07:43:33;;;;;;;2.88;1.10;;;;;;;25.33;43.13;96526.94;5008821;28;20129;-78
2022/07/14 07:45:59;;;;;;;2.60;1.20;;;;;;;25.39;42.49;96524.50;5008316;28;20095;-79
2022/07/14 07:48:26;;;;;;;4.68;1.25;;;;;;;25.37;40.37;96518.53;5008070;28;20505;-79
2022/07/14 07:50:55;;;;;;;7.18;1.10;;;;;;;25.44;41.75;96518.47;5008440;28;20133;-79
2022/07/14 07:53:22;;;;;;;2.72;1.30;;;;;;;25.52;40.49;96526.34;5007577;28;20535;-79
2022/07/14 07:55:50;;;;;;;2.95;1.20;;;;;;;25.56;40.91;96520.75;4996987;28;20085;-79
2022/07/14 07:58:16;;;;;;;4.78;1.33;;;;;;;25.65;40.03;96523.06;4988349;28;20062;-79
2022/07/14 08:00:43;;;;;;;3.97;1.10;;;;;;;25.85;39.93;96514.94;4988730;28;20065;-78
2022/07/14 08:03:09;;;;;;;7.20;2.55;;;;;;;25.89;41.74;96512.88;4988383;28;20054;-79
2022/07/14 08:05:36;;;;;;;2.83;1.02;;;;;;;26.06;40.45;96508.34;4988643;28;20062;-79
2022/07/14 08:08:02;;;;;;;3.60;1.15;;;;;;;26.26;40.93;96506.50;4988368;28;20440;-78
2022/07/14 08:10:29;;;;;;;5.18;1.20;;;;;;;26.32;38.06;96504.84;4988250;28;20047;-78
2022/07/14 08:12:57;;;;;;;3.25;1.20;;;;;;;26.58;36.93;96508.94;4988688;28;20050;-81
2022/07/14 08:15:25;;;;;;;2.58;1.10;;;;;;;27.08;36.82;96513.03;4988008;28;20081;-78
2022/07/14 08:17:51;;;;;;;4.85;1.10;;;;;;;27.77;37.51;96512.31;4988622;28;20049;-78
2022/07/14 08:20:19;;;;;;;2.28;1.23;;;;;;;28.48;39.22;96498.94;4987963;28;20116;-79
2022/07/14 08:22:46;;;;;;;4.22;1.30;;;;;;;28.95;34.55;96495.16;4988459;28;20042;-79
2022/07/14 08:25:12;;;;;;;8.82;1.20;;;;;;;28.96;32.58;96482.69;4987490;28;20050;-78
2022/07/14 08:27:39;;;;;;;3.22;1.10;;;;;;;28.99;35.37;96479.81;4988474;28;20054;-79
2022/07/14 08:30:08;;;;;;;3.47;1.13;;;;;;;29.20;32.63;96481.34;4988030;28;20053;-79
2022/07/14 08:32:37;;;;;;;3.47;1.17;;;;;;;28.97;33.99;96478.66;4988432;28;20081;-80
2022/07/14 08:35:05;;;;;;;83.22;8.98;;;;;;;29.12;35.65;96479.91;4988058;28;20057;-78
2022/07/14 08:37:33;;;;;;;3.13;1.10;;;;;;;28.86;33.20;96468.47;4988112;28;20441;-78
2022/07/14 08:40:00;;;;;;;7.75;1.88;;;;;;;28.67;33.46;96472.13;4988088;28;20054;-79
2022/07/14 08:42:29;;;;;;;2.90;1.40;;;;;;;28.46;34.42;96472.59;4987930;28;20046;-79
2022/07/14 08:44:56;;;;;;;4.78;1.10;;;;;;;28.48;35.80;96470.16;4988082;28;20073;-79
2022/07/14 08:47:24;;;;;;;3.45;1.10;;;;;;;28.70;36.40;96474.03;4987663;28;20046;-79
2022/07/14 08:49:50;;;;;;;4.00;0.90;;;;;;;28.88;34.75;96470.84;4988011;28;20054;-79
2022/07/14 08:52:18;;;;;;;3.13;1.00;;;;;;;29.16;33.99;96468.63;4987420;28;20043;-79
2022/07/14 08:54:45;;;;;;;188.23;28.15;;;;;;;29.26;32.63;96473.97;4987386;28;20085;-79
2022/07/14 08:57:12;;;;;;;5.63;1.42;;;;;;;29.24;30.50;96470.81;4987270;28;20050;-78
2022/07/14 08:59:40;;;;;;;1.90;1.00;;;;;;;29.14;29.79;96469.06;4987841;28;20050;-78
2022/07/14 09:02:07;;;;;;;1.70;1.08;;;;;;;29.06;31.13;96459.25;4987212;28;20038;-79
2022/07/14 09:04:35;;;;;;;13.05;2.22;;;;;;;29.25;30.97;96466.78;4988000;28;20050;-78
2022/07/14 09:07:01;;;;;;;4.78;1.10;;;;;;;29.27;29.43;96460.72;4987255;28;20043;-80
2022/07/14 09:09:31;;;;;;;2.05;1.00;;;;;;;29.25;27.93;96458.38;4987684;28;20053;-80
2022/07/14 09:12:01;;;;;;;4.25;1.33;;;;;;;29.30;28.33;96455.03;4987629;28;20532;-80
2022/07/14 09:15:44;;;;;;;2.40;1.08;;;;;;;29.58;31.28;96445.13;5006776;28;20045;-79
2022/07/14 09:17:20;;;;;;;4.60;0.98;;;;;;;29.83;31.62;96446.47;5006226;28;20057;-80
2022/07/14 09:20:10;;;;;;;1.70;1.15;;;;;;;29.58;28.50;96442.31;5006754;28;20062;-79
2022/07/14 09:22:38;;;;;;;3.30;1.10;;;;;;;29.65;29.42;96438.53;5007402;28;20404;-80
2022/07/14 09:25:08;;;;;;;2.53;1.00;;;;;;;29.90;30.86;96427.41;5013307;28;20045;-79
2022/07/14 09:27:35;;;;;;;3.35;1.10;;;;;;;29.87;28.48;96428.31;5029856;28;20098;-78
2022/07/14 09:30:03;;;;;;;3.40;1.00;;;;;;;29.84;28.07;96423.56;5029512;28;20064;-79
2022/07/14 09:32:47;;;;;;;7.50;1.55;;;;;;;30.17;30.62;96422.69;5029961;28;20053;-79
2022/07/14 09:35:17;;;;;;;4.82;1.20;;;;;;;30.19;29.96;96425.84;5029283;28;20046;-79
2022/07/14 09:37:46;;;;;;;7.38;1.25;;;;;;;30.25;28.58;96430.47;5029845;28;20553;-79
2022/07/14 09:40:15;;;;;;;3.40;1.25;;;;;;;30.37;31.44;96426.88;5029210;28;20095;-79
2022/07/14 09:42:51;;;;;;;8.52;1.27;;;;;;;30.62;31.42;96419.72;5029585;28;20045;-79
2022/07/14 09:45:20;;;;;;;2.53;1.00;;;;;;;30.67;30.70;96419.94;5029308;28;20045;-80
2022/07/14 09:47:58;;;;;;;4.32;1.00;;;;;;;30.83;30.55;96413.44;5029932;28;20053;-80
2022/07/14 09:50:41;;;;;;;3.20;1.42;;;;;;;30.93;30.11;96406.69;5029241;28;20049;-80
2022/07/14 09:53:20;;;;;;;5.72;1.40;;;;;;;30.90;30.28;96407.59;5029192;28;20056;-80
2022/07/14 09:55:56;;;;;;;4.05;1.15;;;;;;;31.06;31.24;96406.69;5018425;28;20060;-80
2022/07/14 09:58:23;;;;;;;5.30;1.08;;;;;;;30.84;26.38;96403.78;5009356;28;20046;-79
2022/07/14 10:00:56;;;;;;;4.57;1.20;;;;;;;30.88;27.77;96398.06;5009936;28;20515;-80
2022/07/14 10:03:22;;;;;;;;;;;;;;;31.02;29.93;96391.19;5009836;28;20128;-81
2022/07/14 10:05:52;;;;;;;4.35;1.10;;;;;;;30.96;26.23;96388.16;5009906;28;19970;-80
2022/07/14 10:08:20;;;;;;;4.30;1.70;;;;;;;30.88;31.35;96386.81;5009243;28;20038;-80
2022/07/14 10:10:47;;;;;;;8.27;1.70;;;;;;;30.95;29.78;96394.22;5009763;28;20049;-80
2022/07/14 10:13:17;;;;;;;3.10;1.00;;;;;;;31.06;29.15;96381.38;5009167;28;20099;-79
2022/07/14 10:15:44;;;;;;;4.18;0.98;;;;;;;31.01;27.54;96375.53;5009648;28;20467;-80
2022/07/14 10:18:12;;;;;;;5.30;1.20;;;;;;;31.03;29.75;96376.66;5009097;28;20042;-79
2022/07/14 10:20:39;;;;;;;3.78;1.10;;;;;;;31.12;28.32;96373.16;5009692;28;20050;-80
2022/07/14 10:23:08;;;;;;;3.78;1.17;;;;;;;31.15;27.50;96372.25;5009046;28;20575;-80
2022/07/14 10:25:35;;;;;;;15.73;2.80;;;;;;;31.11;29.67;96361.09;5016954;28;20045;-80
2022/07/14 10:28:02;;;;;;;3.55;1.20;;;;;;;31.17;27.03;96358.53;5028794;28;20045;-78
2022/07/14 10:30:37;;;;;;;33.35;3.63;;;;;;;31.17;28.90;96364.16;5029007;28;20076;-79
2022/07/14 10:33:10;;;;;;;2.85;1.20;;;;;;;31.24;26.96;96363.91;5028626;28;20042;-79
2022/07/14 10:35:52;;;;;;;2.30;1.23;;;;;;;31.28;26.56;96370.22;5028783;28;20503;-80
2022/07/14 10:38:34;;;;;;;1.67;0.90;;;;;;;31.05;26.97;96350.88;5028305;28;20519;-80
2022/07/14 10:41:10;;;;;;;2.80;0.90;;;;;;;31.33;26.93;96355.59;5028840;28;20057;-80
2022/07/14 10:43:52;;;;;;;20.40;2.40;;;;;;;31.05;26.73;96348.84;5028863;28;20041;-79
2022/07/14 10:46:34;;;;;;;7.07;1.30;;;;;;;31.30;28.96;96347.25;5028434;28;20049;-80
2022/07/14 10:49:03;;;;;;;14.38;1.13;;;;;;;31.39;27.01;96342.50;5028850;28;20054;-77
2022/07/14 10:51:32;;;;;;;2.15;1.10;;;;;;;31.51;25.86;96345.72;5028742;28;20053;-79
2022/07/14 10:54:08;;;;;;;1.88;0.90;;;;;;;31.47;24.43;96348.66;5028738;28;20148;-79
2022/07/14 10:56:36;;;;;;;8.38;1.20;;;;;;;31.48;24.81;96343.81;5004922;28;20053;-79
2022/07/14 10:59:31;;;;;;;4.32;1.00;;;;;;;31.48;25.76;96332.53;5008646;28;20568;-79
2022/07/14 11:02:33;;;;;;;2.55;0.80;;;;;;;31.57;26.30;96329.81;5008938;28;20042;-79
2022/07/14 11:05:07;;;;;;;13.55;2.15;;;;;;;31.40;26.79;96327.19;4989289;28;20171;-80
2022/07/14 11:07:36;;;;;;;1.50;0.90;;;;;;;31.62;25.35;96332.81;4989087;28;20129;-80
2022/07/14 11:10:05;;;;;;;4.13;1.15;;;;;;;31.62;27.21;96327.19;4988707;28;20042;-78
2022/07/14 11:12:32;;;;;;;2.42;1.10;;;;;;;31.56;28.32;96319.81;4988974;28;20050;-80
2022/07/14 11:14:58;;;;;;;1.67;0.90;;;;;;;31.74;26.52;96308.69;4989153;28;20054;-80
2022/07/14 11:17:39;;;;;;;2.45;0.95;;;;;;;31.72;26.45;96308.34;5034227;28;20124;-78
2022/07/14 11:20:10;;;;;;;3.40;0.85;;;;;;;31.69;24.69;96309.28;5008171;28;20050;-77
2022/07/14 11:22:37;;;;;;;3.00;1.15;;;;;;;31.52;26.28;96310.69;5008676;28;20102;-79
2022/07/14 11:25:05;;;;;;;3.78;1.05;;;;;;;31.44;25.92;96302.53;5011270;28;20042;-79
2022/07/14 11:27:36;;;;;;;2.60;0.90;;;;;;;31.53;26.28;96295.38;5028278;28;20561;-80
2022/07/14 11:30:28;;;;;;;3.60;0.80;;;;;;;31.66;26.26;96287.66;5027903;28;20073;-80
2022/07/14 11:33:03;;;;;;;9.10;1.73;;;;;;;31.72;26.92;96290.66;5028312;28;20109;-79
2022/07/14 11:38:48;;;;;;;2.38;0.82;;;;;;;31.78;23.82;96288.81;4966539;28;20085;-80
2022/07/14 11:41:43;;;;;;;7.55;1.30;;;;;;;31.53;25.21;96278.50;4966314;28;20587;-79
2022/07/14 11:44:47;;;;;;;1.90;0.95;;;;;;;31.66;23.15;96282.03;5001065;28;20394;-79
2022/07/14 11:47:16;;;;;;;4.43;0.90;;;;;;;31.79;23.59;96279.13;5027081;28;20049;-79
2022/07/14 11:49:52;;;;;;;5.75;1.42;;;;;;;31.85;25.93;96266.84;5027671;28;20408;-80
2022/07/14 11:52:25;;;;;;;2.50;1.00;;;;;;;31.84;24.89;96268.09;5027493;28;20659;-79